Dades meteomassalio
Diari Summary for Juny 3, 2017 Units:  Metric    English   Both
« Previous Day
Next Day »
Diari Semanal Mensual Anual Personalitzat
  Maxima: Minima: Mijana:
Temperatura: 27.2 °C 17.7 °C 19.9 °C
Rosada: 18.7 °C 14.3 °C 16.9 °C
Humitat: 92 % 52 % 84 %
Velocitat del vent: 29.6 km/h 0.0 km/h 6.7 km/h
Racha vent: 29.6 km/h - -
Vent:- - SW
Pressio: 1019.2 hPa 1013.1 hPa -
Pluja: 7.1 mm    
Historical Graphs
 
 
Tabular Data for Juny 3, 2017
Time Temperature Dew Point Pressure Wind Wind Speed Wind Gust Humidity Rainfall Rate (Hourly) solar Conditions
00:01 19.1 °C 17.4 °C 1016.1 hPa Calm     90 % 1.5 mm 0.0 W/m2 RA
00:06 19.1 °C 17.4 °C 1016.1 hPa Calm     90 % 1.5 mm 0.0 W/m2 CLR
00:11 19.1 °C 17.4 °C 1016.1 hPa Calm     90 % 1.5 mm 0.0 W/m2 RA
00:16 19.1 °C 17.4 °C 1016.1 hPa NNW 16.7 km/h 16.7 km/h 90 % 1.5 mm 0.0 W/m2
00:21 19.1 °C 17.4 °C 1016.5 hPa NW 7.4 km/h 7.4 km/h 90 % 1.5 mm 0.0 W/m2 CLR
00:26 19.0 °C 17.3 °C 1016.5 hPa Calm     90 % 1.5 mm 0.0 W/m2 CLR
00:31 18.9 °C 17.3 °C 1016.8 hPa NW 12.9 km/h 12.9 km/h 90 % 1.3 mm 0.0 W/m2 CLR
00:36 18.9 °C 17.3 °C 1017.5 hPa WNW 13.0 km/h 13.0 km/h 90 % 1.3 mm 0.0 W/m2 CLR
00:41 18.9 °C 17.3 °C 1017.2 hPa WNW 7.4 km/h 7.4 km/h 90 % 1.0 mm 0.0 W/m2 CLR
00:46 18.9 °C 17.3 °C 1017.2 hPa Calm     90 % 0.5 mm 0.0 W/m2 CLR
00:51 18.9 °C 17.3 °C 1017.5 hPa Calm     90 % 0.3 mm 0.0 W/m2 CLR
00:56 18.9 °C 17.2 °C 1017.5 hPa Calm     90 % 0.3 mm 0.0 W/m2 CLR
01:01 18.9 °C 17.2 °C 1017.5 hPa Calm     90 % 0.3 mm 0.0 W/m2 CLR
01:06 18.8 °C 17.2 °C 1017.5 hPa Calm     90 % 0.3 mm 0.0 W/m2 CLR
01:11 18.8 °C 17.3 °C 1017.5 hPa Calm     91 % 0.0 mm 0.0 W/m2 CLR
01:16 18.8 °C 17.3 °C 1017.5 hPa Calm     91 % 0.0 mm 0.0 W/m2 CLR
01:21 18.8 °C 17.3 °C 1017.8 hPa Calm     91 % 0.0 mm 0.0 W/m2 CLR
01:26 18.8 °C 17.3 °C 1017.8 hPa Calm     91 % 0.0 mm 0.0 W/m2 CLR
01:31 18.8 °C 17.3 °C 1017.8 hPa Calm     91 % 0.0 mm 0.0 W/m2 CLR
01:36 18.7 °C 17.2 °C 1017.8 hPa Calm     91 % 0.0 mm 0.0 W/m2 CLR
01:41 18.7 °C 17.2 °C 1017.8 hPa West 5.6 km/h 5.6 km/h 91 % 0.0 mm 0.0 W/m2 CLR
01:46 18.7 °C 17.2 °C 1017.8 hPa WNW 8.0 km/h 8.0 km/h 91 % 0.0 mm 0.0 W/m2 CLR
01:51 18.8 °C 17.3 °C 1017.8 hPa West 5.6 km/h 5.6 km/h 91 % 0.0 mm 0.0 W/m2 CLR
01:56 18.8 °C 17.1 °C 1017.5 hPa West 5.6 km/h   90 % 0.0 mm 0.0 W/m2 CLR
02:01 18.8 °C 17.2 °C 1017.8 hPa WSW 12.9 km/h 12.9 km/h 90 % 0.0 mm 0.0 W/m2 CLR
02:06 18.9 °C 17.3 °C 1017.8 hPa West 18.5 km/h 18.5 km/h 90 % 0.0 mm 0.0 W/m2 CLR
02:11 19.1 °C 17.3 °C 1017.5 hPa West 11.3 km/h 11.3 km/h 89 % 0.0 mm 0.0 W/m2 CLR
02:16 19.2 °C 17.3 °C 1017.5 hPa West 11.3 km/h 11.3 km/h 89 % 0.0 mm 0.0 W/m2 CLR
02:19 19.2 °C 17.4 °C 1017.5 hPa West 11.1 km/h 11.1 km/h 89 % 0.0 mm 0.0 W/m2 CLR
02:24 19.3 °C 17.4 °C 1017.5 hPa WNW 11.1 km/h 11.1 km/h 89 % 0.0 mm 0.0 W/m2 CLR
02:29 19.3 °C 17.5 °C 1017.5 hPa WNW 14.8 km/h 14.8 km/h 89 % 0.0 mm 0.0 W/m2 CLR
02:34 19.2 °C 17.6 °C 1017.5 hPa NW 16.7 km/h 16.7 km/h 90 % 0.0 mm 0.0 W/m2 CLR
02:39 19.1 °C 17.4 °C 1017.5 hPa WNW 14.8 km/h 14.8 km/h 90 % 0.0 mm 0.0 W/m2 CLR
02:44 19.1 °C 17.4 °C 1017.5 hPa WNW 9.3 km/h 9.3 km/h 90 % 0.0 mm 0.0 W/m2 CLR
02:49 19.1 °C 17.4 °C 1017.5 hPa Calm     90 % 0.0 mm 0.0 W/m2 CLR
02:54 19.1 °C 17.6 °C 1017.5 hPa Calm     91 % 0.0 mm 0.0 W/m2 CLR
02:59 19.0 °C 17.5 °C 1017.5 hPa Calm     91 % 0.0 mm 0.0 W/m2 CLR
03:04 19.0 °C 17.5 °C 1017.5 hPa Calm     91 % 0.0 mm 0.0 W/m2 CLR
03:09 18.9 °C 17.4 °C 1017.2 hPa SW 5.6 km/h   91 % 0.0 mm 0.0 W/m2 CLR
03:14 18.8 °C 17.3 °C 1017.2 hPa Calm     91 % 0.0 mm 0.0 W/m2 CLR
03:19 18.8 °C 17.3 °C 1017.2 hPa Calm     91 % 0.0 mm 0.0 W/m2 CLR
03:24 18.7 °C 17.2 °C 1017.2 hPa Calm     91 % 0.0 mm 0.0 W/m2 CLR
03:29 18.7 °C 17.2 °C 1017.2 hPa Calm     91 % 0.0 mm 0.0 W/m2 CLR
03:34 18.7 °C 17.2 °C 1016.8 hPa Calm     91 % 0.0 mm 0.0 W/m2 CLR
03:39 18.6 °C 17.1 °C 1016.8 hPa Calm     91 % 0.0 mm 0.0 W/m2 CLR
03:44 18.6 °C 17.1 °C 1016.8 hPa Calm     91 % 0.0 mm 0.0 W/m2 CLR
03:49 18.6 °C 17.1 °C 1016.5 hPa Calm     91 % 0.0 mm 0.0 W/m2 CLR
03:54 18.6 °C 17.1 °C 1016.5 hPa Calm     91 % 0.5 mm 0.0 W/m2 RA
03:59 18.6 °C 17.1 °C 1016.1 hPa Calm     91 % 0.5 mm 0.0 W/m2
04:04 18.6 °C 17.1 °C 1016.1 hPa SSE 8.0 km/h 8.0 km/h 91 % 0.5 mm 0.0 W/m2 CLR
04:09 18.6 °C 17.1 °C 1016.1 hPa SE 7.4 km/h 7.4 km/h 91 % 0.5 mm 0.0 W/m2 CLR
04:14 18.5 °C 17.0 °C 1015.8 hPa SSE 5.6 km/h 6.1 km/h 91 % 0.5 mm 0.0 W/m2 CLR
04:20 18.4 °C 16.9 °C 1015.8 hPa SE 6.4 km/h 6.4 km/h 91 % 0.5 mm 0.0 W/m2 CLR
04:25 18.5 °C 17.0 °C 1015.5 hPa SE 7.4 km/h 7.4 km/h 91 % 0.5 mm 0.0 W/m2 CLR
04:30 18.4 °C 16.9 °C 1015.8 hPa South 14.8 km/h 14.8 km/h 91 % 0.5 mm 0.0 W/m2 CLR
04:35 18.4 °C 16.9 °C 1015.5 hPa SSE 9.3 km/h 9.3 km/h 91 % 0.5 mm 0.0 W/m2 CLR
04:40 18.4 °C 16.9 °C 1015.5 hPa SSE 14.8 km/h 14.8 km/h 91 % 0.5 mm 0.0 W/m2 CLR
04:45 18.4 °C 16.9 °C 1015.5 hPa South 14.8 km/h 14.8 km/h 91 % 0.5 mm 0.0 W/m2 CLR
04:50 18.6 °C 16.9 °C 1015.1 hPa SSE 13.0 km/h 13.0 km/h 90 % 0.5 mm 0.0 W/m2 CLR
04:55 18.6 °C 16.9 °C 1015.1 hPa Calm     90 % 0.0 mm 0.0 W/m2 CLR
05:00 18.6 °C 16.9 °C 1015.1 hPa Calm     90 % 0.0 mm 0.0 W/m2 CLR
05:05 18.6 °C 16.9 °C 1014.8 hPa SE 4.8 km/h 4.8 km/h 90 % 0.0 mm 0.0 W/m2 CLR
05:10 18.5 °C 16.8 °C 1014.8 hPa South 7.4 km/h 7.4 km/h 90 % 0.0 mm 0.0 W/m2 CLR
05:15 18.4 °C 16.8 °C 1014.8 hPa South 11.1 km/h 11.1 km/h 90 % 0.0 mm 0.0 W/m2 CLR
05:20 18.4 °C 16.8 °C 1014.8 hPa Calm     90 % 0.0 mm 0.0 W/m2 CLR
05:25 18.4 °C 16.8 °C 1014.8 hPa Calm     90 % 0.0 mm 0.0 W/m2 CLR
05:30 18.4 °C 16.7 °C 1014.8 hPa Calm     90 % 0.0 mm 0.0 W/m2 CLR
05:35 18.3 °C 16.8 °C 1014.8 hPa Calm     91 % 0.0 mm 0.0 W/m2 CLR
05:40 18.4 °C 16.9 °C 1014.8 hPa SSE 6.4 km/h 6.4 km/h 91 % 0.0 mm 0.0 W/m2 CLR
05:45 18.4 °C 16.9 °C 1014.8 hPa Calm     91 % 0.0 mm 0.0 W/m2 CLR
05:50 18.4 °C 16.9 °C 1014.8 hPa Calm     91 % 0.0 mm 0.0 W/m2 CLR
05:55 18.4 °C 16.9 °C 1014.8 hPa Calm     91 % 0.0 mm 0.0 W/m2 CLR
06:00 18.3 °C 16.8 °C 1014.8 hPa Calm     91 % 0.0 mm 0.0 W/m2 CLR
06:05 18.3 °C 16.8 °C 1014.8 hPa Calm     91 % 0.0 mm 0.0 W/m2 CLR
06:10 18.3 °C 16.8 °C 1015.1 hPa Calm     91 % 0.0 mm 0.0 W/m2 CLR
06:11 18.3 °C 16.8 °C 1015.1 hPa Calm     91 % 0.0 mm 0.0 W/m2 CLR
06:16 18.3 °C 16.8 °C 1015.1 hPa West 3.7 km/h   91 % 0.0 mm 0.0 W/m2 CLR
06:21 18.3 °C 16.8 °C 1015.1 hPa Calm     91 % 0.0 mm 0.0 W/m2 OVC
06:26 18.3 °C 16.8 °C 1014.8 hPa Calm     91 % 0.0 mm 0.0 W/m2 OVC
06:31 18.3 °C 16.8 °C 1014.8 hPa Calm     91 % 0.0 mm 0.0 W/m2 OVC
06:36 18.4 °C 16.9 °C 1014.8 hPa Calm     91 % 0.3 mm 0.0 W/m2 RA
06:41 18.4 °C 16.9 °C 1015.1 hPa Calm     91 % 0.3 mm 0.0 W/m2 CLR
06:46 18.3 °C 16.8 °C 1015.5 hPa WSW 6.4 km/h 6.4 km/h 91 % 0.3 mm 0.0 W/m2 OVC
06:48 18.2 °C 16.7 °C 1015.5 hPa WSW 8.0 km/h 8.0 km/h 91 % 0.3 mm 0.0 W/m2 OVC
06:53 18.2 °C 16.7 °C 1015.8 hPa WSW 16.7 km/h 16.7 km/h 91 % 0.3 mm 5.0 W/m2 OVC
06:58 18.2 °C 16.7 °C 1015.8 hPa WSW 16.7 km/h 16.7 km/h 91 % 0.3 mm 5.0 W/m2 OVC
07:03 18.2 °C 16.8 °C 1016.1 hPa WSW 17.7 km/h 17.7 km/h 92 % 0.3 mm 5.0 W/m2 OVC
07:08 18.2 °C 16.7 °C 1015.8 hPa Calm     91 % 0.3 mm 0.0 W/m2 OVC
07:13 18.2 °C 16.7 °C 1015.8 hPa Calm     91 % 0.3 mm 0.0 W/m2 OVC
07:18 18.2 °C 16.7 °C 1015.8 hPa Calm     91 % 0.5 mm 0.0 W/m2 RA
07:23 18.2 °C 16.7 °C 1015.5 hPa ESE 9.3 km/h 9.3 km/h 91 % 0.5 mm 0.0 W/m2 RA
07:28 18.2 °C 16.7 °C 1015.1 hPa ESE 9.7 km/h 9.7 km/h 91 % 0.8 mm 0.0 W/m2 RA
07:33 18.1 °C 16.8 °C 1014.8 hPa SE 9.3 km/h 9.3 km/h 92 % 0.8 mm 0.0 W/m2 RA
07:38 18.1 °C 16.8 °C 1015.5 hPa West 13.0 km/h 13.0 km/h 92 % 1.0 mm 7.0 W/m2 RA
07:43 18.1 °C 16.8 °C 1015.8 hPa West 11.1 km/h 11.1 km/h 92 % 1.0 mm 12.0 W/m2 BKN
07:48 18.1 °C 16.8 °C 1015.8 hPa Calm     92 % 1.3 mm 23.0 W/m2 RA
07:53 18.1 °C 16.8 °C 1015.5 hPa Calm     92 % 1.3 mm 30.0 W/m2 BKN
07:58 18.1 °C 16.8 °C 1015.5 hPa NNE 9.3 km/h 9.3 km/h 92 % 1.3 mm 35.0 W/m2 BKN
08:03 18.2 °C 16.8 °C 1015.1 hPa North 16.7 km/h 16.7 km/h 92 % 1.3 mm 46.0 W/m2 BKN
08:08 18.2 °C 16.9 °C 1015.5 hPa Calm     92 % 1.3 mm 63.0 W/m2 SCT
08:13 18.3 °C 16.9 °C 1015.8 hPa Calm     92 % 1.3 mm 81.0 W/m2 SCT
08:18 18.4 °C 17.1 °C 1016.5 hPa West 16.7 km/h 16.7 km/h 92 % 1.0 mm 90.0 W/m2 FEW
08:23 18.5 °C 17.2 °C 1016.5 hPa NW 18.5 km/h 18.5 km/h 92 % 0.8 mm 74.0 W/m2 CLR
08:28 18.4 °C 16.9 °C 1015.8 hPa Calm     91 % 0.5 mm 32.0 W/m2 FEW
08:33 18.4 °C 17.1 °C 1015.5 hPa Calm     92 % 0.5 mm 25.0 W/m2 BKN
08:38 18.4 °C 17.1 °C 1015.1 hPa Calm     92 % 0.5 mm 39.0 W/m2 RA
08:43 18.4 °C 17.1 °C 1015.1 hPa Calm     92 % 0.5 mm 56.0 W/m2 RA
08:48 18.4 °C 17.1 °C 1015.1 hPa Calm     92 % 0.5 mm 77.0 W/m2 SCT
08:53 18.4 °C 17.1 °C 1015.1 hPa Calm     92 % 0.5 mm 113.0 W/m2 FEW
08:58 18.5 °C 17.2 °C 1015.1 hPa Calm     92 % 0.5 mm 171.0 W/m2 CLR
09:03 18.6 °C 17.2 °C 1015.1 hPa Calm     92 % 0.5 mm 185.0 W/m2 CLR
09:08 18.7 °C 17.3 °C 1015.5 hPa Calm     92 % 0.5 mm 95.0 W/m2 CLR
09:13 18.6 °C 17.3 °C 1015.8 hPa ENE 8.0 km/h 8.0 km/h 92 % 0.5 mm 30.0 W/m2 FEW
09:18 18.6 °C 17.3 °C 1015.8 hPa ENE 11.1 km/h 11.1 km/h 92 % 0.5 mm 18.0 W/m2 SCT
09:23 18.7 °C 17.4 °C 1015.8 hPa West 9.3 km/h 9.3 km/h 92 % 0.5 mm 12.0 W/m2 BKN
09:28 18.7 °C 17.3 °C 1016.1 hPa WSW 14.5 km/h 14.5 km/h 92 % 0.5 mm 11.0 W/m2 BKN
09:33 18.6 °C 17.3 °C 1016.1 hPa SW 11.1 km/h 11.1 km/h 92 % 0.5 mm 12.0 W/m2 BKN
09:38 18.5 °C 17.2 °C 1016.5 hPa WSW 16.7 km/h 16.7 km/h 92 % 0.3 mm 19.0 W/m2 BKN
09:48 18.4 °C 17.1 °C 1016.1 hPa Calm     92 % 0.3 mm 44.0 W/m2 BKN
09:53 18.5 °C 17.2 °C 1016.1 hPa Calm     92 % 0.3 mm 53.0 W/m2 BKN
09:58 18.6 °C 17.2 °C 1015.8 hPa Calm     92 % 0.3 mm 65.0 W/m2 SCT
10:03 18.6 °C 17.2 °C 1015.8 hPa Calm     92 % 0.3 mm 83.0 W/m2 FEW
10:08 18.6 °C 17.3 °C 1015.8 hPa Calm     92 % 0.5 mm 81.0 W/m2 RA
10:13 18.7 °C 17.3 °C 1015.8 hPa Calm     92 % 0.5 mm 91.0 W/m2 FEW
10:18 18.7 °C 17.4 °C 1015.8 hPa Calm     92 % 0.5 mm 204.0 W/m2 CLR
10:23 18.8 °C 17.5 °C 1015.8 hPa Calm     92 % 0.5 mm 195.0 W/m2 CLR
10:28 18.9 °C 17.6 °C 1015.8 hPa Calm     92 % 0.5 mm 86.0 W/m2 CLR
10:33 18.9 °C 17.6 °C 1015.8 hPa Calm     92 % 0.5 mm 25.0 W/m2 FEW
10:38 18.8 °C 17.3 °C 1015.8 hPa SSE 1.9 km/h   91 % 0.5 mm 23.0 W/m2 BKN
10:43 18.6 °C 17.1 °C 1015.5 hPa SE 7.4 km/h 7.4 km/h 91 % 1.5 mm 40.0 W/m2 RA
10:48 18.6 °C 17.1 °C 1015.1 hPa ESE 4.8 km/h 4.8 km/h 91 % 2.3 mm 53.0 W/m2 RA
10:53 18.4 °C 16.9 °C 1015.5 hPa SE 3.7 km/h   91 % 2.3 mm 165.0 W/m2 SCT
10:58 18.4 °C 17.1 °C 1015.5 hPa Calm     92 % 2.3 mm 137.0 W/m2 CLR
11:03 18.4 °C 17.1 °C 1015.8 hPa Calm     92 % 2.3 mm 49.0 W/m2 CLR
11:08 18.3 °C 16.8 °C 1015.5 hPa Calm     91 % 2.0 mm 91.0 W/m2 RA
11:13 18.3 °C 16.8 °C 1015.8 hPa Calm     91 % 2.5 mm 227.0 W/m2 RA
11:18 18.4 °C 17.1 °C 1015.8 hPa Calm     92 % 2.5 mm 239.0 W/m2 CLR
11:23 18.5 °C 17.2 °C 1015.8 hPa Calm     92 % 2.5 mm 105.0 W/m2 CLR
11:28 18.6 °C 17.1 °C 1016.1 hPa WSW 6.4 km/h 6.4 km/h 91 % 2.5 mm 70.0 W/m2 CLR
11:33 18.6 °C 17.1 °C 1015.8 hPa Calm     91 % 2.5 mm 88.0 W/m2 FEW
11:39 18.7 °C 17.2 °C 1016.1 hPa Calm     91 % 2.5 mm 121.0 W/m2 CLR
11:44 18.9 °C 17.4 °C 1016.1 hPa Calm     91 % 1.5 mm 62.0 W/m2 CLR
11:49 18.9 °C 17.4 °C 1016.5 hPa Calm     91 % 1.3 mm 93.0 W/m2 RA
11:54 18.9 °C 17.4 °C 1016.5 hPa Calm     91 % 1.3 mm 135.0 W/m2 FEW
11:59 19.1 °C 17.6 °C 1017.2 hPa WNW 13.0 km/h 13.0 km/h 91 % 1.3 mm 79.0 W/m2 CLR
12:04 19.1 °C 17.4 °C 1018.2 hPa WNW 27.8 km/h 27.8 km/h 90 % 1.3 mm 83.0 W/m2 CLR
12:09 19.1 °C 17.4 °C 1017.5 hPa NNW 18.5 km/h 18.5 km/h 90 % 1.0 mm 81.0 W/m2 FEW
12:14 19.1 °C 17.4 °C 1017.8 hPa NW 20.4 km/h 20.4 km/h 90 % 0.5 mm 30.0 W/m2 FEW
12:19 19.1 °C 17.6 °C 1017.5 hPa North 11.1 km/h 11.1 km/h 91 % 0.5 mm 30.0 W/m2 SCT
12:24 19.1 °C 17.6 °C 1017.5 hPa Calm     91 % 0.8 mm 40.0 W/m2 RA
12:29 19.0 °C 17.5 °C 1017.2 hPa Calm     91 % 1.0 mm 70.0 W/m2 RA
12:34 19.1 °C 17.6 °C 1017.2 hPa Calm     91 % 1.3 mm 176.0 W/m2 RA
12:39 19.2 °C 17.7 °C 1017.2 hPa Calm     91 % 1.3 mm 378.0 W/m2 CLR
12:44 19.4 °C 18.1 °C 1017.2 hPa Calm     92 % 1.3 mm 271.0 W/m2 CLR
12:49 19.4 °C 17.9 °C 1017.2 hPa East 3.7 km/h 3.7 km/h 91 % 0.8 mm 272.0 W/m2 CLR
12:54 19.6 °C 18.3 °C 1016.8 hPa ESE 3.2 km/h   92 % 0.8 mm 241.0 W/m2 CLR
12:59 19.6 °C 18.1 °C 1016.8 hPa ENE 3.7 km/h 3.7 km/h 91 % 0.8 mm 174.0 W/m2 CLR
13:04 19.6 °C 18.3 °C 1016.5 hPa Calm     92 % 0.8 mm 155.0 W/m2 CLR
13:09 19.5 °C 18.0 °C 1016.5 hPa Calm     91 % 0.8 mm 98.0 W/m2 CLR
13:14 19.5 °C 18.0 °C 1016.8 hPa Calm     91 % 0.8 mm 70.0 W/m2 CLR
13:19 19.3 °C 17.8 °C 1016.8 hPa Calm     91 % 0.5 mm 56.0 W/m2 FEW
13:24 19.4 °C 17.9 °C 1016.5 hPa SE 11.1 km/h 11.1 km/h 91 % 0.5 mm 44.0 W/m2 SCT
13:29 19.3 °C 17.8 °C 1016.5 hPa SE 11.1 km/h 11.1 km/h 91 % 0.3 mm 44.0 W/m2 SCT
13:34 19.4 °C 17.9 °C 1016.1 hPa SSE 8.0 km/h 8.0 km/h 91 % 0.0 mm 72.0 W/m2 SCT
13:39 19.3 °C 17.7 °C 1016.1 hPa SE 14.8 km/h 14.8 km/h 90 % 0.0 mm 116.0 W/m2 FEW
13:44 19.3 °C 17.7 °C 1016.1 hPa SSE 6.4 km/h 6.4 km/h 90 % 0.0 mm 225.0 W/m2 CLR
13:49 19.4 °C 17.7 °C 1016.1 hPa Calm     90 % 0.0 mm 211.0 W/m2 CLR
13:54 19.3 °C 17.7 °C 1016.1 hPa SSW 13.0 km/h 13.0 km/h 90 % 0.0 mm 236.0 W/m2 CLR
13:59 19.4 °C 17.7 °C 1016.5 hPa Calm     90 % 0.0 mm 192.0 W/m2 CLR
14:04 19.4 °C 17.6 °C 1017.2 hPa SW 11.3 km/h 11.3 km/h 89 % 0.0 mm 134.0 W/m2 CLR
14:09 19.5 °C 17.6 °C 1017.5 hPa WSW 13.0 km/h 13.0 km/h 89 % 0.0 mm 171.0 W/m2 CLR
14:14 19.6 °C 17.5 °C 1017.2 hPa SSW 9.3 km/h 9.3 km/h 88 % 0.0 mm 229.0 W/m2 CLR
14:19 19.7 °C 17.6 °C 1017.5 hPa SW 13.0 km/h 13.0 km/h 88 % 0.0 mm 269.0 W/m2 CLR
14:24 19.8 °C 17.9 °C 1017.2 hPa SW 14.8 km/h 14.8 km/h 89 % 0.0 mm 345.0 W/m2 CLR
14:29 19.9 °C 18.1 °C 1016.8 hPa SW 9.3 km/h 9.3 km/h 89 % 0.0 mm 327.0 W/m2 CLR
14:39 20.2 °C 18.2 °C 1016.5 hPa SSW 3.7 km/h 3.7 km/h 88 % 0.3 mm 464.0 W/m2 RA
14:44 20.4 °C 18.2 °C 1015.5 hPa SE 11.1 km/h 11.1 km/h 87 % 0.3 mm 264.0 W/m2 CLR
14:49 20.6 °C 18.3 °C 1015.1 hPa SE 19.3 km/h 19.3 km/h 87 % 0.3 mm 179.0 W/m2 CLR
14:54 20.3 °C 18.1 °C 1014.8 hPa SSE 24.1 km/h 24.1 km/h 87 % 0.3 mm 165.0 W/m2 CLR
14:59 20.2 °C 18.0 °C 1014.1 hPa South 13.0 km/h 13.0 km/h 87 % 0.3 mm 243.0 W/m2 CLR
15:04 20.4 °C 18.2 °C 1013.8 hPa SE 22.2 km/h 22.2 km/h 87 % 0.3 mm 287.0 W/m2 CLR
15:09 20.5 °C 18.1 °C 1013.8 hPa SE 11.1 km/h 11.1 km/h 86 % 0.3 mm 445.0 W/m2 CLR
15:14 20.8 °C 18.2 °C 1013.8 hPa SSE 7.4 km/h 7.4 km/h 85 % 0.3 mm 464.0 W/m2 CLR
15:19 21.1 °C 18.1 °C 1013.8 hPa South 11.3 km/h 11.3 km/h 83 % 0.3 mm 322.0 W/m2 CLR
15:24 21.4 °C 17.8 °C 1014.1 hPa SSE 13.0 km/h 13.0 km/h 80 % 0.3 mm 338.0 W/m2 CLR
15:29 21.7 °C 18.1 °C 1014.1 hPa South 14.8 km/h 14.8 km/h 80 % 0.3 mm 846.0 W/m2 CLR
15:34 22.1 °C 18.2 °C 1014.1 hPa South 11.1 km/h 11.1 km/h 79 % 0.3 mm 889.0 W/m2 CLR
15:39 22.4 °C 18.4 °C 1014.1 hPa SSW 9.7 km/h 9.7 km/h 78 % 0.0 mm 868.0 W/m2 CLR
15:44 22.8 °C 18.4 °C 1013.8 hPa South 5.6 km/h 5.6 km/h 76 % 0.0 mm 889.0 W/m2 CLR
15:49 23.1 °C 18.7 °C 1013.8 hPa South 14.5 km/h 14.5 km/h 76 % 0.0 mm 909.0 W/m2 CLR
15:54 23.3 °C 17.6 °C 1013.8 hPa South 12.9 km/h 12.9 km/h 70 % 0.0 mm 877.0 W/m2 CLR
15:59 23.6 °C 17.6 °C 1013.8 hPa South 9.7 km/h 9.7 km/h 69 % 0.0 mm 835.0 W/m2 CLR
16:04 23.8 °C 15.8 °C 1013.8 hPa South 11.3 km/h 11.3 km/h 61 % 0.0 mm 819.0 W/m2 CLR
16:09 24.0 °C 15.8 °C 1013.8 hPa SW 1.9 km/h   60 % 0.0 mm 807.0 W/m2 CLR
16:14 24.3 °C 16.0 °C 1013.8 hPa Calm     60 % 0.0 mm 817.0 W/m2 CLR
16:19 24.6 °C 15.5 °C 1013.8 hPa SSW 7.4 km/h 7.4 km/h 57 % 0.0 mm 803.0 W/m2 CLR
16:24 24.8 °C 15.7 °C 1014.1 hPa Calm     57 % 0.0 mm 789.0 W/m2 CLR
16:29 25.2 °C 15.5 °C 1013.8 hPa Calm     55 % 0.0 mm 779.0 W/m2 CLR
16:34 25.4 °C 15.7 °C 1013.8 hPa Calm     55 % 0.0 mm 779.0 W/m2 CLR
16:39 25.7 °C 15.4 °C 1013.4 hPa Calm     53 % 0.0 mm 770.0 W/m2 CLR
16:44 25.7 °C 16.3 °C 1013.4 hPa East 5.6 km/h 5.6 km/h 56 % 0.0 mm 758.0 W/m2 CLR
16:49 25.7 °C 16.0 °C 1013.1 hPa East 5.6 km/h 5.6 km/h 55 % 0.0 mm 745.0 W/m2 CLR
16:54 25.7 °C 16.6 °C 1013.4 hPa North 1.9 km/h   57 % 0.0 mm 728.0 W/m2 CLR
17:00 25.9 °C 16.2 °C 1013.4 hPa NNW 1.9 km/h 1.9 km/h 55 % 0.0 mm 708.0 W/m2 CLR
17:05 26.2 °C 17.3 °C 1013.4 hPa NNE 7.4 km/h 7.4 km/h 58 % 0.0 mm 684.0 W/m2 CLR
17:10 26.3 °C 16.8 °C 1013.4 hPa NE 5.6 km/h 5.6 km/h 56 % 0.0 mm 694.0 W/m2 CLR
17:15 26.3 °C 15.7 °C 1013.8 hPa Calm     52 % 0.0 mm 687.0 W/m2 CLR
17:20 26.4 °C 16.7 °C 1013.4 hPa Calm     55 % 0.0 mm 691.0 W/m2 CLR
17:25 26.8 °C 17.3 °C 1013.4 hPa Calm     56 % 0.0 mm 693.0 W/m2 CLR
17:30 26.8 °C 16.2 °C 1013.4 hPa NNE 1.9 km/h   52 % 0.0 mm 462.0 W/m2 CLR
17:35 26.8 °C 16.4 °C 1013.4 hPa Calm     53 % 0.0 mm 563.0 W/m2 CLR
17:40 26.8 °C 16.7 °C 1013.4 hPa Calm     54 % 0.0 mm 696.0 W/m2 CLR
17:45 26.8 °C 16.2 °C 1013.8 hPa Calm     52 % 0.0 mm 652.0 W/m2 CLR
17:50 27.1 °C 17.3 °C 1013.8 hPa Calm   0.2 km/h 55 % 0.0 mm 566.0 W/m2 CLR
17:55 27.2 °C 16.5 °C 1013.8 hPa North 7.4 km/h 7.4 km/h 52 % 0.0 mm 552.0 W/m2 CLR
18:00 27.1 °C 16.7 °C 1013.8 hPa NE 7.4 km/h 7.4 km/h 53 % 0.0 mm 689.0 W/m2 CLR
18:05 26.7 °C 17.2 °C 1014.1 hPa NNE 11.3 km/h 11.3 km/h 56 % 0.0 mm 69.0 W/m2 CLR
18:10 26.2 °C 17.0 °C 1014.1 hPa North 14.8 km/h 14.8 km/h 57 % 0.0 mm 60.0 W/m2 FEW
18:15 25.5 °C 16.6 °C 1014.1 hPa North 17.7 km/h 17.7 km/h 58 % 0.0 mm 84.0 W/m2 FEW
18:20 25.1 °C 16.8 °C 1014.1 hPa North 22.2 km/h 22.2 km/h 60 % 0.0 mm 63.0 W/m2 FEW
18:25 24.8 °C 16.5 °C 1013.8 hPa NNE 20.4 km/h 20.4 km/h 60 % 0.0 mm 23.0 W/m2 SCT
18:30 24.6 °C 16.3 °C 1014.1 hPa NNE 18.5 km/h 18.5 km/h 60 % 0.0 mm 16.0 W/m2 BKN
18:35 24.1 °C 17.1 °C 1014.8 hPa NNW 16.7 km/h 16.7 km/h 65 % 0.0 mm 9.0 W/m2 BKN
18:40 23.6 °C 17.1 °C 1015.1 hPa North 18.5 km/h 18.5 km/h 67 % 0.0 mm 7.0 W/m2 BKN
18:45 23.3 °C 16.8 °C 1014.8 hPa NNW 9.3 km/h 9.3 km/h 67 % 0.0 mm 7.0 W/m2 BKN
18:50 23.2 °C 16.9 °C 1014.8 hPa NNW 9.7 km/h 9.7 km/h 68 % 0.0 mm 5.0 W/m2 BKN
18:55 23.1 °C 17.1 °C 1015.1 hPa NNW 5.6 km/h 5.6 km/h 69 % 0.0 mm 5.0 W/m2 BKN
19:00 22.9 °C 17.2 °C 1015.1 hPa NW 5.6 km/h   70 % 0.0 mm 7.0 W/m2 BKN
19:05 22.9 °C 17.1 °C 1014.8 hPa NNW 8.0 km/h 8.0 km/h 70 % 0.0 mm 7.0 W/m2 BKN
19:10 22.8 °C 17.0 °C 1014.8 hPa NW 9.7 km/h 9.7 km/h 70 % 0.0 mm 9.0 W/m2 BKN
19:15 22.7 °C 16.7 °C 1015.1 hPa NW 14.8 km/h 14.8 km/h 69 % 0.0 mm 12.0 W/m2 BKN
19:20 22.7 °C 16.4 °C 1015.5 hPa NNW 18.5 km/h 18.5 km/h 68 % 0.0 mm 16.0 W/m2 BKN
19:25 22.0 °C 17.2 °C 1015.5 hPa WNW 29.6 km/h 29.6 km/h 74 % 0.0 mm 21.0 W/m2 BKN
19:30 21.0 °C 17.0 °C 1015.5 hPa WNW 24.1 km/h 24.1 km/h 78 % 0.0 mm 33.0 W/m2 BKN
19:35 20.5 °C 16.9 °C 1015.5 hPa WNW 24.1 km/h 24.1 km/h 80 % 0.0 mm 47.0 W/m2 BKN
19:40 20.3 °C 16.9 °C 1015.8 hPa WNW 12.9 km/h 12.9 km/h 81 % 0.0 mm 58.0 W/m2 SCT
19:45 20.2 °C 16.8 °C 1015.8 hPa West 9.7 km/h 9.7 km/h 81 % 0.0 mm 53.0 W/m2 SCT
19:50 20.2 °C 16.8 °C 1015.8 hPa WNW 13.0 km/h 13.0 km/h 81 % 0.0 mm 49.0 W/m2 SCT
19:55 20.1 °C 16.7 °C 1015.8 hPa West 9.3 km/h 9.3 km/h 81 % 0.0 mm 56.0 W/m2 SCT
20:00 20.1 °C 16.7 °C 1016.1 hPa West 5.6 km/h 5.6 km/h 81 % 0.0 mm 51.0 W/m2 SCT
20:05 20.1 °C 16.9 °C 1016.1 hPa Calm     82 % 0.0 mm 44.0 W/m2 SCT
20:10 20.1 °C 16.9 °C 1016.5 hPa West 14.8 km/h 14.8 km/h 82 % 0.0 mm 39.0 W/m2 BKN
20:11 20.1 °C 16.9 °C 1016.5 hPa WNW 7.4 km/h 7.4 km/h 82 % 0.0 mm 39.0 W/m2 BKN
20:16 20.1 °C 16.9 °C 1016.5 hPa WNW 11.1 km/h 11.1 km/h 82 % 0.0 mm 44.0 W/m2 BKN
20:21 20.0 °C 16.8 °C 1016.5 hPa NNW 14.5 km/h 14.5 km/h 82 % 0.0 mm 49.0 W/m2 BKN
20:26 20.0 °C 16.6 °C 1016.5 hPa NW 13.0 km/h 13.0 km/h 81 % 0.0 mm 54.0 W/m2 SCT
20:31 20.1 °C 16.5 °C 1016.5 hPa NW 14.8 km/h 14.8 km/h 80 % 0.0 mm 60.0 W/m2 SCT
20:36 20.1 °C 16.7 °C 1016.5 hPa NW 14.8 km/h 14.8 km/h 81 % 0.0 mm 74.0 W/m2 FEW
20:41 20.2 °C 16.6 °C 1016.8 hPa WNW 9.3 km/h 9.3 km/h 80 % 0.0 mm 81.0 W/m2 FEW
20:46 20.2 °C 16.6 °C 1016.5 hPa NW 14.8 km/h 14.8 km/h 80 % 0.0 mm 62.0 W/m2 SCT
20:51 20.2 °C 16.7 °C 1016.8 hPa NW 16.7 km/h 16.7 km/h 80 % 0.0 mm 33.0 W/m2 BKN
20:56 20.2 °C 16.6 °C 1016.8 hPa WNW 14.5 km/h 14.5 km/h 80 % 0.0 mm 19.0 W/m2 BKN
21:01 20.2 °C 16.4 °C 1016.8 hPa WNW 14.5 km/h 14.5 km/h 79 % 0.0 mm 18.0 W/m2 BKN
21:06 20.2 °C 16.6 °C 1016.8 hPa West 25.9 km/h 25.9 km/h 80 % 0.0 mm 18.0 W/m2 BKN
21:11 19.9 °C 16.6 °C 1016.8 hPa West 20.4 km/h 20.4 km/h 81 % 0.0 mm 23.0 W/m2 BKN
21:16 19.8 °C 16.4 °C 1017.2 hPa WNW 20.4 km/h 20.4 km/h 81 % 0.0 mm 19.0 W/m2 BKN
21:21 19.6 °C 16.3 °C 1017.2 hPa NW 5.6 km/h 5.6 km/h 81 % 0.0 mm 14.0 W/m2 BKN
21:22 19.6 °C 16.3 °C 1017.2 hPa NNW 5.6 km/h 5.6 km/h 81 % 0.0 mm 14.0 W/m2 BKN
21:26 19.5 °C 15.9 °C 1017.2 hPa NW 9.7 km/h 9.7 km/h 80 % 0.0 mm 11.0 W/m2 BKN
21:32 19.4 °C 15.8 °C 1017.2 hPa NW 9.3 km/h 9.3 km/h 80 % 0.0 mm 7.0 W/m2 OVC
21:37 19.3 °C 15.8 °C 1017.2 hPa NNW 9.7 km/h 9.7 km/h 80 % 0.0 mm 0.0 W/m2 OVC
21:42 19.2 °C 15.9 °C 1017.2 hPa NNW 5.6 km/h 5.6 km/h 81 % 0.0 mm 0.0 W/m2 CLR
21:47 19.1 °C 15.8 °C 1017.2 hPa WNW 9.3 km/h 9.3 km/h 81 % 0.0 mm 0.0 W/m2 CLR
21:52 19.1 °C 15.7 °C 1017.5 hPa WNW 9.7 km/h 9.7 km/h 81 % 0.0 mm 0.0 W/m2 CLR
21:57 19.0 °C 15.3 °C 1017.5 hPa NW 20.4 km/h 20.4 km/h 79 % 0.0 mm 0.0 W/m2 CLR
22:02 18.8 °C 15.1 °C 1017.5 hPa NW 18.5 km/h 18.5 km/h 79 % 0.0 mm 0.0 W/m2 CLR
22:07 18.7 °C 14.8 °C 1017.8 hPa NW 24.1 km/h 24.1 km/h 78 % 0.0 mm 0.0 W/m2 CLR
22:12 18.5 °C 14.6 °C 1018.2 hPa NW 20.4 km/h 20.4 km/h 78 % 0.0 mm 0.0 W/m2 CLR
22:17 18.4 °C 14.7 °C 1018.2 hPa WNW 18.5 km/h 18.5 km/h 79 % 0.0 mm 0.0 W/m2 CLR
22:22 18.3 °C 14.6 °C 1018.2 hPa WNW 13.0 km/h 13.0 km/h 79 % 0.0 mm 0.0 W/m2 CLR
22:27 18.2 °C 14.7 °C 1018.5 hPa WNW 5.6 km/h   80 % 0.0 mm 0.0 W/m2 CLR
22:32 18.1 °C 14.6 °C 1018.5 hPa Calm     80 % 0.0 mm 0.0 W/m2 CLR
22:37 18.0 °C 14.5 °C 1018.5 hPa Calm     80 % 0.0 mm 0.0 W/m2 CLR
22:42 17.9 °C 14.4 °C 1018.5 hPa West 6.4 km/h 6.4 km/h 80 % 0.0 mm 0.0 W/m2 CLR
22:47 17.9 °C 14.4 °C 1018.5 hPa WNW 11.1 km/h 11.1 km/h 80 % 0.0 mm 0.0 W/m2 CLR
22:52 17.9 °C 14.4 °C 1018.5 hPa Calm     80 % 0.0 mm 0.0 W/m2 CLR
22:57 17.9 °C 14.4 °C 1018.8 hPa West 8.0 km/h 8.0 km/h 80 % 0.0 mm 0.0 W/m2 CLR
23:02 17.8 °C 14.3 °C 1018.5 hPa Calm     80 % 0.0 mm 0.0 W/m2 CLR
23:07 17.8 °C 14.5 °C 1018.8 hPa Calm     81 % 0.0 mm 0.0 W/m2 CLR
23:12 17.7 °C 14.4 °C 1018.8 hPa Calm     81 % 0.0 mm 0.0 W/m2 CLR
23:17 17.7 °C 14.4 °C 1018.8 hPa Calm     81 % 0.0 mm 0.0 W/m2 CLR
23:22 17.8 °C 14.5 °C 1018.8 hPa Calm     81 % 0.0 mm 0.0 W/m2 CLR
23:27 17.8 °C 14.3 °C 1019.2 hPa Calm     80 % 0.0 mm 0.0 W/m2 CLR
23:32 17.8 °C 14.5 °C 1019.2 hPa Calm     81 % 0.0 mm 0.0 W/m2 CLR
23:37 17.8 °C 14.7 °C 1018.8 hPa Calm     82 % 0.0 mm 0.0 W/m2 CLR
23:42 17.8 °C 14.5 °C 1019.2 hPa Calm     81 % 0.0 mm 0.0 W/m2 CLR
23:47 17.9 °C 14.6 °C 1018.8 hPa Calm     81 % 0.0 mm 0.0 W/m2 CLR
23:52 17.9 °C 14.6 °C 1018.8 hPa Calm     81 % 0.0 mm 0.0 W/m2 CLR
23:57 18.0 °C 14.5 °C 1018.8 hPa Calm     80 % 0.0 mm 0.0 W/m2 CLR
Lo Temps de Massalio
Compliments of Weather Underground - 1.25 mb